Time;durP1;ratioP1;P1;durP2;ratioP2;P2;SDS_P1;SDS_P2;PMS_P1;PMS_P2;Temp;Humidity;BMP_temperature;BMP_pressure;BME280_temperature;BME280_humidity;BME280_pressure;Samples;Min_cycle;Max_cycle;Signal;HPM_P1;HPM_P2
2023/05/31 00:02:26;;;;;;;3.87;2.40;;;;;;;14.34;66.80;102665.13;6083829;29;20236;-75
2023/05/31 00:05:47;;;;;;;6.40;3.20;;;;;;;14.30;66.93;102667.22;6084209;29;20232;-78
2023/05/31 00:09:08;;;;;;;5.20;3.20;;;;;;;14.32;67.27;102667.97;6075573;29;20611;-80
2023/05/31 00:12:30;;;;;;;3.53;3.20;;;;;;;14.22;67.53;102669.63;6077132;29;20236;-81
2023/05/31 00:15:51;;;;;;;3.67;3.07;;;;;;;14.23;67.77;102670.44;6077235;29;20232;-82
2023/05/31 00:19:12;;;;;;;3.17;2.27;;;;;;;14.11;67.56;102661.41;6094007;29;21131;-82
2023/05/31 00:22:33;;;;;;;2.90;2.67;;;;;;;14.09;67.78;102665.22;6089398;29;20232;-82
2023/05/31 00:25:54;;;;;;;3.17;2.70;;;;;;;14.15;68.07;102671.03;6093557;29;20256;-78
2023/05/31 00:29:16;;;;;;;2.77;2.50;;;;;;;14.22;67.96;102675.03;6086254;29;20260;-79
2023/05/31 00:32:37;;;;;;;5.77;3.63;;;;;;;14.29;67.68;102673.59;6091832;29;20232;-79
2023/05/31 00:35:58;;;;;;;3.50;3.27;;;;;;;14.11;67.86;102668.66;6096335;29;20236;-81
2023/05/31 00:39:19;;;;;;;2.70;2.50;;;;;;;14.07;67.70;102670.75;6089218;29;20240;-80
2023/05/31 00:42:39;;;;;;;4.70;2.37;;;;;;;13.93;68.67;102665.50;6082283;29;20285;-79
2023/05/31 00:46:02;;;;;;;3.30;2.27;;;;;;;14.00;68.67;102666.75;6079489;29;20232;-78
2023/05/31 00:49:23;;;;;;;3.67;2.57;;;;;;;13.97;68.92;102675.13;6077297;29;20240;-79
2023/05/31 00:52:47;;;;;;;3.33;3.03;;;;;;;13.98;69.00;102670.56;6087384;29;20341;-78
2023/05/31 00:56:08;;;;;;;3.47;2.27;;;;;;;13.90;68.85;102668.44;6083164;29;20358;-77
2023/05/31 00:59:29;;;;;;;6.20;2.73;;;;;;;13.87;68.88;102671.34;6084925;29;20728;-77
2023/05/31 01:02:53;;;;;;;3.17;2.67;;;;;;;13.73;69.83;102673.34;6087149;29;20224;-77
2023/05/31 01:06:14;;;;;;;3.17;2.70;;;;;;;13.77;69.51;102661.34;6082544;29;20232;-78
2023/05/31 01:09:36;;;;;;;3.17;2.57;;;;;;;13.76;69.77;102665.88;6088921;29;20228;-79
2023/05/31 01:13:06;;;;;;;3.57;2.40;;;;;;;13.74;69.64;102669.66;6088206;29;20229;-79
2023/05/31 01:16:33;;;;;;;3.10;2.77;;;;;;;13.74;70.25;102673.25;6073666;29;20582;-78
2023/05/31 01:19:58;;;;;;;3.27;2.13;;;;;;;13.68;70.31;102665.59;6083120;29;20236;-80
2023/05/31 01:23:36;;;;;;;2.80;2.57;;;;;;;13.55;70.61;102665.59;6074151;29;20267;-80
2023/05/31 01:27:02;;;;;;;10.67;3.67;;;;;;;13.51;70.99;102663.22;6083041;29;20303;-77
2023/05/31 01:30:25;;;;;;;2.17;2.07;;;;;;;13.60;71.15;102670.69;6078942;29;20224;-79
2023/05/31 01:33:47;;;;;;;3.63;2.90;;;;;;;13.46;71.20;102670.81;6076818;29;20244;-79
2023/05/31 01:37:08;;;;;;;6.23;3.73;;;;;;;13.51;71.90;102672.22;6074977;29;20236;-80
2023/05/31 01:40:32;;;;;;;6.10;2.90;;;;;;;13.39;72.09;102677.66;6085732;29;20236;-79
2023/05/31 01:43:56;;;;;;;3.10;2.90;;;;;;;13.51;71.83;102672.22;6088865;29;20240;-77
2023/05/31 01:47:18;;;;;;;4.57;2.87;;;;;;;13.53;72.01;102672.09;6087668;29;20320;-80
2023/05/31 01:50:41;;;;;;;2.33;2.13;;;;;;;13.49;72.14;102673.31;6075604;29;20244;-79
2023/05/31 01:54:02;;;;;;;3.47;3.17;;;;;;;13.41;72.11;102668.44;6075088;29;20249;-78
2023/05/31 01:57:26;;;;;;;5.30;3.80;;;;;;;13.31;72.72;102661.94;6073906;29;20999;-79
2023/05/31 02:00:49;;;;;;;5.43;2.60;;;;;;;13.24;72.89;102667.91;6078430;29;20240;-79
2023/05/31 02:04:10;;;;;;;3.23;2.50;;;;;;;13.32;73.19;102668.22;6063400;29;20565;-79
2023/05/31 02:07:32;;;;;;;6.57;3.40;;;;;;;13.38;73.17;102667.78;6059771;29;20236;-78
2023/05/31 02:10:53;;;;;;;2.37;2.17;;;;;;;13.34;73.33;102669.00;6079808;29;20548;-76
2023/05/31 02:14:15;;;;;;;2.37;2.20;;;;;;;13.32;73.37;102674.53;6067816;29;20264;-78
2023/05/31 02:17:40;;;;;;;3.77;2.23;;;;;;;13.28;73.55;102670.31;6085688;29;20319;-79
2023/05/31 02:21:01;;;;;;;6.33;2.87;;;;;;;13.33;73.87;102664.56;6084625;29;20237;-81
2023/05/31 02:24:22;;;;;;;5.67;2.97;;;;;;;13.37;73.90;102668.78;6070907;29;20232;-79
2023/05/31 02:27:44;;;;;;;5.83;3.43;;;;;;;13.17;74.29;102661.19;6087893;29;20233;-81
2023/05/31 02:31:05;;;;;;;3.67;3.13;;;;;;;13.12;74.58;102661.50;6055625;29;20319;-82
2023/05/31 02:34:28;;;;;;;3.93;3.43;;;;;;;13.17;74.71;102659.34;6085512;29;20240;-81
2023/05/31 02:37:49;;;;;;;3.27;2.97;;;;;;;13.10;75.12;102660.75;6086974;29;20248;-81
2023/05/31 02:41:10;;;;;;;4.47;2.80;;;;;;;13.10;75.13;102663.47;6083603;29;20308;-81
2023/05/31 02:44:33;;;;;;;4.27;2.83;;;;;;;13.09;75.45;102663.59;6083340;29;20351;-80
2023/05/31 02:48:01;;;;;;;3.53;2.60;;;;;;;13.05;75.55;102662.94;6086102;29;20232;-80
2023/05/31 02:51:23;;;;;;;2.70;2.37;;;;;;;13.07;75.38;102663.69;6085618;29;20239;-80
2023/05/31 02:55:17;;;;;;;4.33;2.63;;;;;;;12.81;76.07;102660.06;6084193;29;20251;-81
2023/05/31 02:59:04;;;;;;;4.50;3.23;;;;;;;12.76;76.09;102661.38;6076566;29;20348;-81
2023/05/31 03:02:33;;;;;;;4.07;2.93;;;;;;;12.72;76.78;102655.28;6059869;29;20236;-79
2023/05/31 03:06:16;;;;;;;3.23;3.03;;;;;;;12.84;76.74;102653.59;6080740;29;20236;-80
2023/05/31 03:09:38;;;;;;;5.90;3.23;;;;;;;12.74;77.04;102652.50;6084144;29;20237;-79
2023/05/31 03:13:00;;;;;;;3.27;2.50;;;;;;;12.83;77.50;102644.59;6072127;29;20272;-81
2023/05/31 03:16:23;;;;;;;3.47;2.90;;;;;;;12.82;77.08;102651.00;6066678;29;20229;-81
2023/05/31 03:19:44;;;;;;;6.17;4.10;;;;;;;12.81;77.05;102641.13;6069218;29;21286;-80
2023/05/31 03:23:06;;;;;;;7.43;3.47;;;;;;;12.59;77.06;102643.59;6072492;29;20232;-80
2023/05/31 03:26:32;;;;;;;7.57;3.23;;;;;;;12.69;77.41;102642.00;6071546;29;20347;-81
2023/05/31 03:29:52;;;;;;;9.27;4.40;;;;;;;12.68;76.87;102644.81;6074794;29;20232;-80
2023/05/31 03:33:13;;;;;;;4.73;2.73;;;;;;;12.76;77.61;102647.84;6086806;29;20240;-80
2023/05/31 03:36:36;;;;;;;3.93;3.20;;;;;;;12.85;77.10;102648.06;6081931;29;20260;-80
2023/05/31 03:40:17;;;;;;;3.53;2.87;;;;;;;12.76;77.90;102642.44;6070985;29;20729;-80
2023/05/31 03:43:40;;;;;;;3.97;3.43;;;;;;;12.77;77.31;102638.72;6088558;29;20236;-80
2023/05/31 03:47:01;;;;;;;5.97;3.50;;;;;;;12.79;77.37;102640.38;6086223;29;20610;-81
2023/05/31 03:50:22;;;;;;;5.37;2.80;;;;;;;13.00;77.32;102646.13;6080989;29;20228;-81
2023/05/31 03:53:43;;;;;;;10.60;8.57;;;;;;;12.97;77.63;102648.19;6096902;29;20236;-79
2023/05/31 03:57:04;;;;;;;12.07;9.83;;;;;;;13.04;77.17;102647.66;6096302;29;20236;-80
2023/05/31 04:00:27;;;;;;;8.73;7.93;;;;;;;13.22;76.95;102640.94;6080802;29;20260;-79
2023/05/31 04:03:48;;;;;;;6.30;5.70;;;;;;;13.20;76.93;102642.03;6074287;29;20232;-79
2023/05/31 04:07:08;;;;;;;15.93;9.37;;;;;;;13.31;76.87;102650.22;6076739;29;20264;-80
2023/05/31 04:10:29;;;;;;;10.40;9.33;;;;;;;13.37;76.90;102642.53;6072994;29;20229;-80
2023/05/31 04:13:50;;;;;;;7.83;7.07;;;;;;;13.46;76.94;102646.44;6080527;29;20228;-79
2023/05/31 04:17:13;;;;;;;7.10;5.23;;;;;;;13.59;76.85;102649.97;6079087;29;20244;-80
2023/05/31 04:20:33;;;;;;;10.53;9.57;;;;;;;13.64;76.81;102650.53;6082236;29;20288;-81
2023/05/31 04:23:54;;;;;;;9.43;7.47;;;;;;;13.57;76.48;102641.97;6080254;29;20233;-79
2023/05/31 04:27:18;;;;;;;6.70;5.37;;;;;;;13.61;76.28;102653.44;6096430;29;20244;-80
2023/05/31 04:30:39;;;;;;;5.77;5.23;;;;;;;13.70;76.64;102647.34;6074764;29;20622;-79
2023/05/31 04:34:03;;;;;;;6.90;6.20;;;;;;;13.77;75.85;102643.19;6082946;29;20232;-79
2023/05/31 04:37:26;;;;;;;5.17;3.93;;;;;;;13.97;75.51;102644.44;6077894;29;20236;-81
2023/05/31 04:40:49;;;;;;;4.93;3.80;;;;;;;14.12;74.98;102651.44;6074383;29;20244;-81
2023/05/31 04:44:10;;;;;;;6.97;5.47;;;;;;;14.31;74.35;102649.06;6084312;29;20251;-80
2023/05/31 04:47:31;;;;;;;6.10;4.07;;;;;;;14.30;73.99;102655.50;6090822;29;20233;-81
2023/05/31 04:50:56;;;;;;;4.87;3.93;;;;;;;14.36;73.44;102652.31;6085843;29;22391;-81
2023/05/31 04:54:17;;;;;;;3.80;3.40;;;;;;;14.52;73.10;102658.28;6067783;29;20236;-73
2023/05/31 04:57:38;;;;;;;7.00;3.50;;;;;;;14.58;72.47;102643.41;6054634;29;20241;-83
2023/05/31 05:01:01;;;;;;;7.33;3.97;;;;;;;14.62;72.06;102653.91;6063957;29;20244;-82
2023/05/31 05:04:30;;;;;;;5.53;3.33;;;;;;;14.56;71.80;102648.91;6064446;29;20236;-81
2023/05/31 05:07:53;;;;;;;3.43;3.13;;;;;;;14.51;71.81;102652.97;6063374;29;20229;-83
2023/05/31 05:11:17;;;;;;;5.83;3.60;;;;;;;14.56;71.81;102658.94;6085961;29;20225;-82
2023/05/31 05:14:40;;;;;;;4.33;3.73;;;;;;;14.47;72.18;102649.66;6072206;29;20256;-82
2023/05/31 05:18:02;;;;;;;6.27;4.23;;;;;;;14.54;72.12;102656.31;6090818;29;20232;-83
2023/05/31 05:21:22;;;;;;;4.90;3.93;;;;;;;14.69;72.13;102656.97;6076263;29;20641;-85
2023/05/31 05:24:45;;;;;;;4.53;3.47;;;;;;;14.87;71.77;102650.97;6050730;29;20232;-83
2023/05/31 05:28:06;;;;;;;5.73;3.03;;;;;;;15.02;71.33;102647.06;6081764;29;20236;-84
2023/05/31 05:31:27;;;;;;;5.47;3.63;;;;;;;15.05;70.94;102643.22;6090015;29;20226;-84
2023/05/31 05:34:52;;;;;;;4.43;3.30;;;;;;;15.19;71.01;102648.44;6071415;29;20233;-84
2023/05/31 05:38:13;;;;;;;5.67;3.57;;;;;;;15.35;70.48;102650.78;6085074;29;20233;-83
2023/05/31 05:41:36;;;;;;;9.83;3.60;;;;;;;15.51;70.58;102644.03;6081590;29;20244;-83
2023/05/31 05:44:58;;;;;;;4.70;3.70;;;;;;;15.62;69.99;102645.88;6089663;29;20615;-84
2023/05/31 05:48:19;;;;;;;4.50;2.90;;;;;;;15.69;70.02;102649.78;6094669;29;20579;-83
2023/05/31 05:51:41;;;;;;;4.53;2.83;;;;;;;15.77;69.67;102642.75;6079573;29;20232;-85
2023/05/31 05:55:04;;;;;;;5.53;3.40;;;;;;;15.92;69.30;102644.19;6090433;29;21001;-85
2023/05/31 05:58:26;;;;;;;11.90;4.23;;;;;;;15.73;69.21;102645.84;6097483;29;20232;-83
2023/05/31 06:02:06;;;;;;;8.93;4.40;;;;;;;15.66;70.37;102652.78;6097910;29;20233;-83
2023/05/31 06:05:28;;;;;;;4.73;3.47;;;;;;;15.78;70.57;102640.91;6074819;29;20228;-83
2023/05/31 06:08:49;;;;;;;5.20;3.43;;;;;;;16.08;70.26;102640.22;6069936;29;20232;-82
2023/05/31 06:12:10;;;;;;;4.73;3.43;;;;;;;16.12;70.25;102641.69;6083654;29;20236;-84
2023/05/31 06:15:36;;;;;;;3.43;2.83;;;;;;;16.28;69.45;102642.09;6084546;29;20233;-81
2023/05/31 06:18:57;;;;;;;5.70;4.27;;;;;;;16.47;69.08;102632.25;6074920;29;20225;-84
2023/05/31 06:22:20;;;;;;;6.87;4.03;;;;;;;16.54;68.10;102627.19;6082802;29;21141;-90
2023/05/31 06:25:41;;;;;;;5.10;2.97;;;;;;;16.86;67.45;102627.97;6078196;29;20232;-84
2023/05/31 06:29:03;;;;;;;3.67;3.37;;;;;;;17.09;66.64;102617.75;6091201;29;20311;-85
2023/05/31 06:32:55;;;;;;;2.73;2.50;;;;;;;16.92;66.46;102616.53;6090531;29;20256;-81
2023/05/31 06:36:19;;;;;;;5.13;4.47;;;;;;;17.17;65.90;102613.34;6076412;29;20344;-83
2023/05/31 06:39:40;;;;;;;3.40;3.10;;;;;;;17.21;64.72;102608.50;6075223;29;20260;-84
2023/05/31 06:43:01;;;;;;;8.00;3.07;;;;;;;17.40;64.10;102608.56;6082984;29;20229;-84
2023/05/31 06:46:40;;;;;;;3.05;2.47;;;;;;;17.05;64.22;102602.69;6088891;29;20233;-84
2023/05/31 06:50:22;;;;;;;5.20;3.22;;;;;;;17.08;64.25;102607.88;6089858;29;20235;-84
2023/05/31 06:54:02;;;;;;;5.45;2.88;;;;;;;17.52;63.61;102599.34;6094982;29;20611;-83
2023/05/31 06:57:23;;;;;;;13.77;5.40;;;;;;;17.76;62.63;102596.22;6082425;29;20236;-85
2023/05/31 07:00:45;;;;;;;4.60;3.03;;;;;;;17.95;61.80;102599.84;6070214;29;22103;-84
2023/05/31 07:04:06;;;;;;;6.22;1.80;;;;;;;17.95;58.47;102599.84;6071732;29;20233;-85
2023/05/31 07:07:28;;;;;;;3.63;2.00;;;;;;;17.91;54.88;102595.69;6089577;29;20609;-84
2023/05/31 07:10:49;;;;;;;3.50;2.42;;;;;;;17.91;55.66;102595.69;6067743;29;20592;-83
2023/05/31 07:14:11;;;;;;;5.30;2.03;;;;;;;18.12;56.29;102598.28;6079222;29;20240;-83
2023/05/31 07:17:33;;;;;;;4.85;2.95;;;;;;;18.23;56.80;102599.00;6067820;29;20289;-84
2023/05/31 07:20:56;;;;;;;5.63;2.72;;;;;;;18.46;57.24;102606.94;6088293;29;20237;-83
2023/05/31 07:24:19;;;;;;;9.40;2.53;;;;;;;18.36;57.17;102598.69;6089990;29;20271;-83
2023/05/31 07:27:40;;;;;;;4.53;2.77;;;;;;;18.75;57.09;102603.16;6082807;29;20241;-84
2023/05/31 07:31:01;;;;;;;2.58;2.13;;;;;;;18.87;57.02;102592.91;6076120;29;20221;-83
2023/05/31 07:34:22;;;;;;;4.30;2.55;;;;;;;18.89;56.57;102590.91;6062552;29;20566;-82
2023/05/31 07:37:43;;;;;;;8.73;2.58;;;;;;;19.10;55.98;102580.63;6086244;29;20236;-86
2023/05/31 07:41:06;;;;;;;2.72;1.63;;;;;;;19.03;55.38;102580.34;6087331;29;20232;-83
2023/05/31 07:44:27;;;;;;;3.30;1.98;;;;;;;18.81;54.27;102579.84;6077127;29;20232;-83
2023/05/31 07:47:53;;;;;;;2.95;2.25;;;;;;;19.15;53.27;102578.28;6089226;29;20263;-85
2023/05/31 07:51:13;;;;;;;1.98;1.73;;;;;;;19.31;52.97;102581.25;6070896;29;20228;-83
2023/05/31 07:54:34;;;;;;;2.80;1.77;;;;;;;19.35;52.58;102579.97;6063322;29;20228;-84
2023/05/31 07:57:59;;;;;;;7.10;1.60;;;;;;;19.58;52.71;102578.53;6091779;29;20236;-84
2023/05/31 08:01:21;;;;;;;4.57;2.63;;;;;;;19.87;52.27;102581.94;6092110;29;20264;-85
2023/05/31 08:04:43;;;;;;;3.25;1.27;;;;;;;20.02;51.56;102584.13;6076806;29;20241;-82
2023/05/31 08:08:05;;;;;;;6.03;3.15;;;;;;;19.94;51.09;102582.19;6064206;29;20234;-85
2023/05/31 08:11:27;;;;;;;2.03;1.40;;;;;;;20.04;50.48;102576.63;6089439;29;20623;-83
2023/05/31 08:14:50;;;;;;;4.75;2.10;;;;;;;20.16;50.87;102575.38;6083191;29;20233;-84
2023/05/31 08:18:11;;;;;;;4.72;1.90;;;;;;;20.03;51.01;102578.50;6070141;29;20241;-85
2023/05/31 08:21:32;;;;;;;8.82;2.05;;;;;;;20.20;51.53;102574.06;6079929;29;20233;-84
2023/05/31 08:24:53;;;;;;;6.68;1.90;;;;;;;20.38;51.05;102567.56;6055595;29;20285;-83
2023/05/31 08:28:16;;;;;;;3.28;1.70;;;;;;;20.51;50.59;102567.16;6084359;29;20233;-84
2023/05/31 08:31:39;;;;;;;4.55;2.50;;;;;;;20.78;49.65;102571.66;6086380;29;20240;-81
2023/05/31 08:35:01;;;;;;;2.50;1.67;;;;;;;21.00;49.71;102563.72;6091404;29;20261;-83
2023/05/31 08:38:25;;;;;;;4.28;1.67;;;;;;;21.03;48.58;102573.53;6090738;29;20425;-84
2023/05/31 08:41:53;;;;;;;3.20;1.42;;;;;;;20.92;49.02;102562.81;6085514;29;20248;-83
2023/05/31 08:45:14;;;;;;;3.15;2.17;;;;;;;20.88;49.13;102551.28;6083975;29;20228;-85
2023/05/31 08:48:43;;;;;;;2.55;1.33;;;;;;;21.01;48.42;102556.34;6081091;29;20224;-87
2023/05/31 08:52:07;;;;;;;3.45;2.13;;;;;;;21.11;48.73;102557.13;6082599;29;20251;-83
2023/05/31 08:55:30;;;;;;;2.63;1.45;;;;;;;21.23;49.11;102559.44;6094896;29;20233;-86
2023/05/31 08:58:51;;;;;;;3.65;2.00;;;;;;;20.58;49.64;102547.19;6090806;29;20618;-82
2023/05/31 09:02:15;;;;;;;5.97;4.15;;;;;;;21.35;49.60;102552.63;6085570;29;20260;-82
2023/05/31 09:05:38;;;;;;;2.92;1.95;;;;;;;21.43;48.78;102554.53;6091784;29;20236;-82
2023/05/31 09:09:00;;;;;;;2.30;1.38;;;;;;;21.39;48.55;102550.38;6082102;29;20268;-82
2023/05/31 09:12:22;;;;;;;3.20;1.88;;;;;;;20.97;48.74;102549.47;6079161;29;20257;-86
2023/05/31 09:15:45;;;;;;;2.25;1.50;;;;;;;21.31;48.16;102542.13;6089843;29;20229;-84
2023/05/31 09:19:06;;;;;;;2.03;1.63;;;;;;;21.51;49.20;102543.56;6083219;29;20240;-81
2023/05/31 09:22:29;;;;;;;5.25;2.10;;;;;;;21.74;48.71;102530.94;6074100;29;20232;-85
2023/05/31 09:25:53;;;;;;;3.05;1.60;;;;;;;22.23;48.82;102530.00;6065734;29;20281;-83
2023/05/31 09:29:15;;;;;;;3.85;1.92;;;;;;;22.14;48.42;102524.66;6077364;29;20232;-82
2023/05/31 09:32:36;;;;;;;4.68;2.20;;;;;;;21.78;48.23;102525.97;6078919;29;20311;-84
2023/05/31 09:35:58;;;;;;;2.67;1.75;;;;;;;21.99;48.99;102513.50;6081758;29;20323;-82
2023/05/31 09:39:21;;;;;;;5.53;1.95;;;;;;;22.46;48.93;102510.91;6088153;29;20232;-84
2023/05/31 09:42:51;;;;;;;5.05;1.40;;;;;;;21.96;48.56;102513.00;6087082;29;20237;-84
2023/05/31 09:46:13;;;;;;;3.65;2.10;;;;;;;22.04;49.50;102522.09;6052158;29;20307;-85
2023/05/31 09:49:35;;;;;;;3.72;1.85;;;;;;;22.01;48.70;102513.31;6067440;29;20229;-85
2023/05/31 09:52:58;;;;;;;2.67;1.85;;;;;;;21.93;49.37;102507.81;6080866;29;20228;-85
2023/05/31 09:56:22;;;;;;;3.55;2.00;;;;;;;22.10;49.91;102504.06;6088128;29;20241;-87
2023/05/31 09:59:43;;;;;;;2.22;1.58;;;;;;;22.47;48.39;102506.25;6096294;29;20237;-84
2023/05/31 10:03:04;;;;;;;4.32;2.17;;;;;;;22.38;47.98;102510.06;6090426;29;20232;-82
2023/05/31 10:06:26;;;;;;;3.78;1.85;;;;;;;23.01;48.05;102505.47;6079534;29;20229;-84
2023/05/31 10:09:47;;;;;;;1.85;1.75;;;;;;;22.60;46.27;102501.13;6089549;29;20278;-84
2023/05/31 10:13:14;;;;;;;5.30;1.85;;;;;;;22.76;45.21;102501.94;6089069;29;20331;-85
2023/05/31 10:16:44;;;;;;;3.33;1.70;;;;;;;22.67;43.38;102491.16;6083018;29;20224;-88
2023/05/31 10:20:09;;;;;;;2.58;1.63;;;;;;;22.84;42.91;102496.41;6097415;29;20327;-85
2023/05/31 10:23:32;;;;;;;3.75;1.90;;;;;;;22.64;43.91;102489.59;6088008;29;20252;-84
2023/05/31 10:27:00;;;;;;;3.40;2.05;;;;;;;22.82;43.90;102492.97;6088694;29;20249;-87
2023/05/31 10:30:28;;;;;;;3.10;1.80;;;;;;;23.28;43.57;102493.16;6086489;29;20228;-86
2023/05/31 10:33:56;;;;;;;4.13;1.95;;;;;;;23.18;42.34;102493.38;6089515;29;20263;-82
2023/05/31 10:37:18;;;;;;;5.90;1.75;;;;;;;23.25;42.44;102490.75;6098641;29;20346;-84
2023/05/31 10:40:47;;;;;;;2.28;2.08;;;;;;;23.22;43.30;102491.97;6057699;29;20244;-85
2023/05/31 10:44:12;;;;;;;4.20;2.22;;;;;;;23.05;42.81;102484.84;6080753;29;20244;-85
2023/05/31 10:47:40;;;;;;;4.43;2.47;;;;;;;23.03;43.52;102474.00;6078214;29;20236;-85
2023/05/31 10:51:02;;;;;;;9.77;1.65;;;;;;;23.16;44.13;102473.41;6084882;29;20296;-81
2023/05/31 10:54:27;;;;;;;2.92;2.00;;;;;;;23.52;44.24;102466.38;6089339;29;20240;-83
2023/05/31 10:57:55;;;;;;;5.22;1.50;;;;;;;23.90;44.41;102458.19;6086087;29;20236;-84
2023/05/31 11:01:20;;;;;;;1.67;1.42;;;;;;;23.71;44.80;102459.53;6084500;29;20237;-84
2023/05/31 11:04:43;;;;;;;2.80;2.08;;;;;;;23.96;44.03;102458.31;6089644;29;20283;-85
2023/05/31 11:08:13;;;;;;;2.97;1.73;;;;;;;23.73;43.54;102451.94;6090753;29;20817;-84
2023/05/31 11:11:48;;;;;;;5.55;1.70;;;;;;;24.03;43.87;102455.66;6091464;29;20272;-81
2023/05/31 11:15:15;;;;;;;3.75;1.98;;;;;;;23.98;42.51;102444.31;6083500;29;20242;-82
2023/05/31 11:18:43;;;;;;;3.55;1.98;;;;;;;23.84;42.36;102441.31;6088299;29;20327;-82
2023/05/31 11:22:10;;;;;;;1.42;1.33;;;;;;;24.14;42.26;102438.69;6091731;29;20236;-83
2023/05/31 11:25:31;;;;;;;7.90;1.63;;;;;;;24.11;42.36;102444.59;6074673;29;20240;-79
2023/05/31 11:28:57;;;;;;;4.38;1.88;;;;;;;24.21;41.95;102439.66;6087955;29;20236;-79
2023/05/31 11:32:18;;;;;;;2.03;1.55;;;;;;;24.58;42.17;102437.72;6084824;29;20277;-77
2023/05/31 11:35:39;;;;;;;2.15;1.33;;;;;;;24.01;42.34;102438.47;6086515;29;20260;-79
2023/05/31 11:39:02;;;;;;;2.72;1.88;;;;;;;24.48;41.94;102431.63;6074632;29;20229;-78
2023/05/31 11:42:23;;;;;;;4.88;2.40;;;;;;;24.51;42.19;102436.75;6091388;29;20236;-78
2023/05/31 11:45:47;;;;;;;3.38;2.30;;;;;;;24.88;42.05;102426.69;6072629;29;20236;-79
2023/05/31 11:49:09;;;;;;;3.53;1.75;;;;;;;24.74;42.34;102420.13;6091847;29;20241;-79
2023/05/31 11:52:30;;;;;;;4.35;1.55;;;;;;;24.39;42.27;102420.84;6080725;29;20229;-78
2023/05/31 11:55:53;;;;;;;2.03;1.63;;;;;;;24.95;42.88;102422.97;6095369;29;20611;-78
2023/05/31 11:59:15;;;;;;;3.00;1.77;;;;;;;25.42;42.52;102408.72;6089326;29;20236;-79
2023/05/31 12:02:36;;;;;;;7.57;3.05;;;;;;;25.27;42.31;102410.63;6083466;29;20236;-79
2023/05/31 12:05:59;;;;;;;2.28;1.60;;;;;;;25.23;43.01;102398.25;6082961;29;20248;-79
2023/05/31 12:09:24;;;;;;;2.60;1.80;;;;;;;25.32;43.04;102402.63;6094824;29;20240;-79
2023/05/31 12:12:46;;;;;;;2.13;1.83;;;;;;;25.43;43.14;102393.00;6092532;29;20912;-79
2023/05/31 12:16:07;;;;;;;4.18;2.22;;;;;;;25.57;44.52;102389.31;6085306;29;20241;-78
2023/05/31 12:19:28;;;;;;;2.70;1.35;;;;;;;25.73;44.39;102395.44;6093217;29;20282;-77
2023/05/31 12:22:49;;;;;;;1.83;1.70;;;;;;;26.01;44.52;102384.41;6090035;29;20244;-78
2023/05/31 12:26:12;;;;;;;3.13;1.38;;;;;;;26.55;44.20;102374.38;6089284;29;20386;-79
2023/05/31 12:29:34;;;;;;;1.63;1.50;;;;;;;26.26;43.87;102373.75;6085694;29;20233;-78
2023/05/31 12:32:58;;;;;;;2.58;1.48;;;;;;;26.39;45.26;102374.69;6092811;29;20248;-78
2023/05/31 12:36:19;;;;;;;3.60;2.05;;;;;;;25.82;45.62;102374.03;6088296;29;20240;-78
2023/05/31 12:39:40;;;;;;;3.33;1.35;;;;;;;26.25;45.46;102366.50;6085929;29;20238;-78
2023/05/31 12:43:01;;;;;;;2.38;1.40;;;;;;;26.67;45.17;102350.59;6086290;29;20240;-79
2023/05/31 12:46:24;;;;;;;1.80;1.38;;;;;;;26.57;45.20;102352.03;6090718;29;20236;-78
2023/05/31 12:49:45;;;;;;;3.47;1.58;;;;;;;27.39;44.55;102347.28;6096515;29;20232;-77
2023/05/31 12:53:07;;;;;;;1.77;1.40;;;;;;;27.01;44.98;102346.06;6088128;29;20793;-78
2023/05/31 12:56:28;;;;;;;2.80;1.60;;;;;;;27.56;44.22;102343.00;6092488;29;20620;-78
2023/05/31 12:59:58;;;;;;;4.20;1.77;;;;;;;27.24;44.89;102343.78;6092114;29;20647;-78
2023/05/31 13:03:20;;;;;;;3.08;1.50;;;;;;;26.60;45.17;102332.22;6094886;29;20240;-76
2023/05/31 13:06:41;;;;;;;2.33;1.40;;;;;;;27.08;43.66;102333.09;6087830;29;20237;-77
2023/05/31 13:10:03;;;;;;;7.50;2.22;;;;;;;28.87;41.21;102334.50;6094363;29;20260;-78
2023/05/31 13:13:24;;;;;;;4.50;1.67;;;;;;;29.37;38.81;102329.94;6091771;29;20610;-76
2023/05/31 13:16:46;;;;;;;2.00;1.45;;;;;;;29.49;38.86;102330.91;6065285;29;20266;-77
2023/05/31 13:20:09;;;;;;;1.23;1.00;;;;;;;30.15;37.95;102323.69;6092461;29;20307;-78
2023/05/31 13:23:30;;;;;;;2.67;1.30;;;;;;;29.78;36.45;102325.56;6091566;29;20236;-77
2023/05/31 13:26:52;;;;;;;2.90;1.30;;;;;;;29.66;36.37;102313.47;6076859;29;20232;-78
2023/05/31 13:30:13;;;;;;;1.30;0.93;;;;;;;30.62;36.50;102313.78;6094053;29;20665;-78
2023/05/31 13:33:34;;;;;;;2.17;1.25;;;;;;;30.55;35.64;102313.84;6090765;29;20324;-79
2023/05/31 13:36:56;;;;;;;4.78;1.90;;;;;;;29.40;36.97;102316.44;6095108;29;20244;-78
2023/05/31 13:40:18;;;;;;;3.50;1.23;;;;;;;30.26;35.82;102297.91;6086398;29;20503;-78
2023/05/31 13:43:39;;;;;;;1.02;0.93;;;;;;;30.52;35.72;102314.31;6081871;29;20260;-78
2023/05/31 13:47:00;;;;;;;8.40;1.63;;;;;;;30.38;35.67;102301.63;6085989;29;20575;-78
2023/05/31 13:50:21;;;;;;;1.75;1.65;;;;;;;28.61;36.94;102306.81;6096623;29;20256;-78
2023/05/31 13:53:43;;;;;;;3.13;2.58;;;;;;;28.16;38.21;102298.41;6094722;29;20240;-77
2023/05/31 13:57:04;;;;;;;1.30;1.15;;;;;;;28.07;38.05;102294.19;6089751;29;20237;-77
2023/05/31 14:00:26;;;;;;;1.27;1.13;;;;;;;27.51;38.90;102293.78;6088673;29;20596;-79
2023/05/31 14:03:47;;;;;;;3.95;2.20;;;;;;;28.14;38.44;102288.63;6077104;29;20233;-79
2023/05/31 14:07:08;;;;;;;2.88;1.33;;;;;;;27.61;38.90;102288.66;6092002;29;20319;-79
2023/05/31 14:10:30;;;;;;;1.13;1.00;;;;;;;25.86;40.54;102278.59;6075955;29;20236;-78
2023/05/31 14:13:51;;;;;;;1.35;1.17;;;;;;;26.53;40.63;102271.34;6079336;29;21294;-77
2023/05/31 14:17:12;;;;;;;4.07;1.13;;;;;;;26.60;40.65;102274.97;6090748;29;20346;-77
2023/05/31 14:20:33;;;;;;;2.03;1.30;;;;;;;26.23;40.20;102274.59;6085130;29;20241;-79
2023/05/31 14:23:54;;;;;;;3.40;1.10;;;;;;;26.02;41.16;102270.84;6085809;29;20228;-77
2023/05/31 14:27:18;;;;;;;2.78;1.10;;;;;;;26.25;41.86;102269.72;6068710;29;20237;-78
2023/05/31 14:30:39;;;;;;;3.63;1.42;;;;;;;26.79;40.95;102263.16;6077756;29;20328;-78
2023/05/31 14:34:00;;;;;;;1.55;1.45;;;;;;;26.76;39.90;102254.44;6067742;29;20233;-78
2023/05/31 14:37:21;;;;;;;1.38;1.20;;;;;;;25.61;40.83;102263.53;6071615;29;20232;-78
2023/05/31 14:40:42;;;;;;;1.75;1.25;;;;;;;25.86;40.83;102257.34;6081937;29;20800;-77
2023/05/31 14:44:04;;;;;;;1.20;1.10;;;;;;;26.09;40.40;102265.38;6073904;29;20236;-76
2023/05/31 14:47:25;;;;;;;2.45;1.50;;;;;;;25.88;40.57;102266.28;6076024;29;20359;-77
2023/05/31 14:50:46;;;;;;;3.05;1.40;;;;;;;25.79;41.14;102256.44;6089043;29;20240;-77
2023/05/31 14:54:06;;;;;;;2.20;1.52;;;;;;;25.72;40.75;102265.75;6080325;29;20241;-76
2023/05/31 14:57:27;;;;;;;1.42;1.33;;;;;;;25.39;42.02;102254.38;6087700;29;20528;-76
2023/05/31 15:00:49;;;;;;;1.73;1.20;;;;;;;26.26;41.38;102252.94;6076525;29;20247;-76
2023/05/31 15:04:11;;;;;;;2.38;1.48;;;;;;;26.02;41.69;102250.63;6080525;29;20255;-78
2023/05/31 15:07:31;;;;;;;6.10;2.70;;;;;;;26.03;41.89;102250.41;6086364;29;20229;-77
2023/05/31 15:10:52;;;;;;;2.95;1.52;;;;;;;26.15;41.14;102247.97;6081414;29;20330;-77
2023/05/31 15:14:13;;;;;;;3.20;1.27;;;;;;;25.39;41.29;102246.09;6077318;29;20804;-77
2023/05/31 15:17:36;;;;;;;2.50;1.92;;;;;;;25.61;41.64;102244.19;6086021;29;20244;-78
2023/05/31 15:20:56;;;;;;;6.60;1.50;;;;;;;25.31;42.96;102244.34;6075795;29;20614;-76
2023/05/31 15:24:17;;;;;;;3.28;1.70;;;;;;;25.65;43.48;102242.75;6085225;29;20745;-76
2023/05/31 15:27:38;;;;;;;2.15;1.40;;;;;;;25.74;43.08;102241.53;6088596;29;20642;-77
2023/05/31 15:31:01;;;;;;;4.40;1.98;;;;;;;25.46;43.16;102249.81;6079302;29;20646;-77
2023/05/31 15:34:23;;;;;;;3.70;1.65;;;;;;;25.16;44.18;102243.56;6078847;29;20516;-78
2023/05/31 15:37:44;;;;;;;2.10;1.90;;;;;;;24.94;45.09;102235.50;6081849;29;20228;-76
2023/05/31 15:41:05;;;;;;;4.32;2.35;;;;;;;24.52;45.69;102241.78;6084508;29;20232;-76
2023/05/31 15:44:26;;;;;;;5.75;1.77;;;;;;;24.89;45.56;102244.38;6080973;29;20247;-78